sensor_id;sensor_type;location;lat;lon;timestamp;temperature;humidity
16814;DHT22;8524;57.650;11.926;2023-06-10T00:00:29;14.70;67.20
16814;DHT22;8524;57.650;11.926;2023-06-10T00:02:57;14.80;66.20
16814;DHT22;8524;57.650;11.926;2023-06-10T00:05:24;14.70;64.90
16814;DHT22;8524;57.650;11.926;2023-06-10T00:07:55;14.70;64.80
16814;DHT22;8524;57.650;11.926;2023-06-10T00:10:22;14.60;63.90
16814;DHT22;8524;57.650;11.926;2023-06-10T00:12:49;14.50;63.90
16814;DHT22;8524;57.650;11.926;2023-06-10T00:15:17;14.50;64.70
16814;DHT22;8524;57.650;11.926;2023-06-10T00:17:45;14.50;63.60
16814;DHT22;8524;57.650;11.926;2023-06-10T00:20:12;14.50;62.60
16814;DHT22;8524;57.650;11.926;2023-06-10T00:22:40;14.50;63.20
16814;DHT22;8524;57.650;11.926;2023-06-10T00:25:11;14.40;64.20
16814;DHT22;8524;57.650;11.926;2023-06-10T00:27:38;14.40;63.40
16814;DHT22;8524;57.650;11.926;2023-06-10T00:30:06;14.30;64.20
16814;DHT22;8524;57.650;11.926;2023-06-10T00:32:33;14.40;62.70
16814;DHT22;8524;57.650;11.926;2023-06-10T00:35:02;14.40;62.20
16814;DHT22;8524;57.650;11.926;2023-06-10T00:37:30;14.30;62.50
16814;DHT22;8524;57.650;11.926;2023-06-10T00:39:57;14.30;61.20
16814;DHT22;8524;57.650;11.926;2023-06-10T00:42:24;14.20;62.50
16814;DHT22;8524;57.650;11.926;2023-06-10T00:44:51;14.20;61.40
16814;DHT22;8524;57.650;11.926;2023-06-10T00:47:18;14.10;60.60
16814;DHT22;8524;57.650;11.926;2023-06-10T00:49:46;14.10;61.10
16814;DHT22;8524;57.650;11.926;2023-06-10T00:52:15;14.00;60.30
16814;DHT22;8524;57.650;11.926;2023-06-10T00:54:43;14.00;60.30
16814;DHT22;8524;57.650;11.926;2023-06-10T00:57:12;13.90;60.90
16814;DHT22;8524;57.650;11.926;2023-06-10T00:59:39;13.90;61.70
16814;DHT22;8524;57.650;11.926;2023-06-10T01:02:07;13.80;61.80
16814;DHT22;8524;57.650;11.926;2023-06-10T01:04:34;13.70;62.60
16814;DHT22;8524;57.650;11.926;2023-06-10T01:07:17;13.60;63.50
16814;DHT22;8524;57.650;11.926;2023-06-10T01:09:52;13.50;65.20
16814;DHT22;8524;57.650;11.926;2023-06-10T01:12:29;13.40;65.00
16814;DHT22;8524;57.650;11.926;2023-06-10T01:14:58;13.40;65.60
16814;DHT22;8524;57.650;11.926;2023-06-10T01:17:26;13.30;64.40
16814;DHT22;8524;57.650;11.926;2023-06-10T01:19:54;13.30;66.20
16814;DHT22;8524;57.650;11.926;2023-06-10T01:22:24;13.20;67.40
16814;DHT22;8524;57.650;11.926;2023-06-10T01:24:52;13.10;69.60
16814;DHT22;8524;57.650;11.926;2023-06-10T01:27:21;13.10;67.90
16814;DHT22;8524;57.650;11.926;2023-06-10T01:29:53;13.00;69.00
16814;DHT22;8524;57.650;11.926;2023-06-10T01:32:26;12.90;69.50
16814;DHT22;8524;57.650;11.926;2023-06-10T01:34:56;12.70;73.90
16814;DHT22;8524;57.650;11.926;2023-06-10T01:37:26;12.70;73.50
16814;DHT22;8524;57.650;11.926;2023-06-10T01:39:56;12.70;74.40
16814;DHT22;8524;57.650;11.926;2023-06-10T01:42:27;12.70;76.10
16814;DHT22;8524;57.650;11.926;2023-06-10T01:44:55;12.70;74.80
16814;DHT22;8524;57.650;11.926;2023-06-10T01:47:22;12.60;75.70
16814;DHT22;8524;57.650;11.926;2023-06-10T01:49:49;12.50;77.80
16814;DHT22;8524;57.650;11.926;2023-06-10T01:52:18;12.40;79.30
16814;DHT22;8524;57.650;11.926;2023-06-10T01:54:47;12.40;78.80
16814;DHT22;8524;57.650;11.926;2023-06-10T01:57:14;12.40;78.90
16814;DHT22;8524;57.650;11.926;2023-06-10T01:59:41;12.30;83.20
16814;DHT22;8524;57.650;11.926;2023-06-10T02:02:10;12.20;81.80
16814;DHT22;8524;57.650;11.926;2023-06-10T02:04:37;12.20;84.70
16814;DHT22;8524;57.650;11.926;2023-06-10T02:07:04;12.10;83.00
16814;DHT22;8524;57.650;11.926;2023-06-10T02:09:31;12.10;82.80
16814;DHT22;8524;57.650;11.926;2023-06-10T02:12:02;12.10;81.80
16814;DHT22;8524;57.650;11.926;2023-06-10T02:14:29;12.00;79.40
16814;DHT22;8524;57.650;11.926;2023-06-10T02:16:56;11.90;85.20
16814;DHT22;8524;57.650;11.926;2023-06-10T02:19:23;11.90;86.70
16814;DHT22;8524;57.650;11.926;2023-06-10T02:21:51;11.90;86.00
16814;DHT22;8524;57.650;11.926;2023-06-10T02:24:18;12.00;84.50
16814;DHT22;8524;57.650;11.926;2023-06-10T02:26:48;12.00;82.50
16814;DHT22;8524;57.650;11.926;2023-06-10T02:29:17;12.00;81.40
16814;DHT22;8524;57.650;11.926;2023-06-10T02:31:44;11.90;83.50
16814;DHT22;8524;57.650;11.926;2023-06-10T02:34:11;11.90;84.00
16814;DHT22;8524;57.650;11.926;2023-06-10T02:36:38;11.90;84.70
16814;DHT22;8524;57.650;11.926;2023-06-10T02:39:05;11.80;81.60
16814;DHT22;8524;57.650;11.926;2023-06-10T02:41:32;11.60;83.80
16814;DHT22;8524;57.650;11.926;2023-06-10T02:43:59;11.60;85.50
16814;DHT22;8524;57.650;11.926;2023-06-10T02:46:27;11.50;88.90
16814;DHT22;8524;57.650;11.926;2023-06-10T02:48:55;11.50;90.00
16814;DHT22;8524;57.650;11.926;2023-06-10T02:51:22;11.50;90.60
16814;DHT22;8524;57.650;11.926;2023-06-10T02:53:49;11.40;91.10
16814;DHT22;8524;57.650;11.926;2023-06-10T02:56:16;11.40;91.60
16814;DHT22;8524;57.650;11.926;2023-06-10T02:58:43;11.30;91.80
16814;DHT22;8524;57.650;11.926;2023-06-10T03:01:11;11.30;92.30
16814;DHT22;8524;57.650;11.926;2023-06-10T03:03:40;11.30;94.00
16814;DHT22;8524;57.650;11.926;2023-06-10T03:06:09;11.40;93.20
16814;DHT22;8524;57.650;11.926;2023-06-10T03:08:38;11.50;93.30
16814;DHT22;8524;57.650;11.926;2023-06-10T03:11:05;11.60;93.30
16814;DHT22;8524;57.650;11.926;2023-06-10T03:13:32;11.70;92.00
16814;DHT22;8524;57.650;11.926;2023-06-10T03:16:01;11.70;91.10
16814;DHT22;8524;57.650;11.926;2023-06-10T03:18:29;11.70;91.30
16814;DHT22;8524;57.650;11.926;2023-06-10T03:20:57;11.70;91.70
16814;DHT22;8524;57.650;11.926;2023-06-10T03:23:24;11.70;92.70
16814;DHT22;8524;57.650;11.926;2023-06-10T03:25:52;11.80;92.70
16814;DHT22;8524;57.650;11.926;2023-06-10T03:28:20;11.80;93.60
16814;DHT22;8524;57.650;11.926;2023-06-10T03:30:47;11.90;93.50
16814;DHT22;8524;57.650;11.926;2023-06-10T03:33:15;11.90;93.50
16814;DHT22;8524;57.650;11.926;2023-06-10T03:35:42;12.00;94.00
16814;DHT22;8524;57.650;11.926;2023-06-10T03:38:10;12.00;94.30
16814;DHT22;8524;57.650;11.926;2023-06-10T03:40:37;12.00;94.60
16814;DHT22;8524;57.650;11.926;2023-06-10T03:43:04;12.00;95.80
16814;DHT22;8524;57.650;11.926;2023-06-10T03:45:31;12.00;95.20
16814;DHT22;8524;57.650;11.926;2023-06-10T03:47:58;12.10;96.30
16814;DHT22;8524;57.650;11.926;2023-06-10T03:50:26;12.00;96.00
16814;DHT22;8524;57.650;11.926;2023-06-10T03:52:53;12.10;96.20
16814;DHT22;8524;57.650;11.926;2023-06-10T03:55:21;12.10;96.20
16814;DHT22;8524;57.650;11.926;2023-06-10T03:57:49;12.20;97.40
16814;DHT22;8524;57.650;11.926;2023-06-10T04:00:17;12.20;97.50
16814;DHT22;8524;57.650;11.926;2023-06-10T04:02:46;12.20;98.10
16814;DHT22;8524;57.650;11.926;2023-06-10T04:05:16;12.20;98.90
16814;DHT22;8524;57.650;11.926;2023-06-10T04:07:43;12.20;99.90
16814;DHT22;8524;57.650;11.926;2023-06-10T04:10:11;12.30;99.60
16814;DHT22;8524;57.650;11.926;2023-06-10T04:12:39;12.20;99.50
16814;DHT22;8524;57.650;11.926;2023-06-10T04:15:07;12.20;99.90
16814;DHT22;8524;57.650;11.926;2023-06-10T04:17:34;12.30;99.90
16814;DHT22;8524;57.650;11.926;2023-06-10T04:20:02;12.40;99.90
16814;DHT22;8524;57.650;11.926;2023-06-10T04:22:32;12.60;99.80
16814;DHT22;8524;57.650;11.926;2023-06-10T04:24:59;12.60;98.70
16814;DHT22;8524;57.650;11.926;2023-06-10T04:27:26;12.70;99.70
16814;DHT22;8524;57.650;11.926;2023-06-10T04:29:54;12.80;98.80
16814;DHT22;8524;57.650;11.926;2023-06-10T04:32:21;12.90;99.00
16814;DHT22;8524;57.650;11.926;2023-06-10T04:34:49;13.10;97.50
16814;DHT22;8524;57.650;11.926;2023-06-10T04:37:16;13.20;97.50
16814;DHT22;8524;57.650;11.926;2023-06-10T04:39:43;13.20;95.10
16814;DHT22;8524;57.650;11.926;2023-06-10T04:42:10;13.30;96.90
16814;DHT22;8524;57.650;11.926;2023-06-10T04:44:37;13.30;96.20
16814;DHT22;8524;57.650;11.926;2023-06-10T04:47:06;13.30;96.50
16814;DHT22;8524;57.650;11.926;2023-06-10T04:49:33;13.30;96.20
16814;DHT22;8524;57.650;11.926;2023-06-10T04:52:01;13.30;97.00
16814;DHT22;8524;57.650;11.926;2023-06-10T04:54:30;13.40;97.30
16814;DHT22;8524;57.650;11.926;2023-06-10T04:56:58;13.50;97.10
16814;DHT22;8524;57.650;11.926;2023-06-10T04:59:25;13.50;96.10
16814;DHT22;8524;57.650;11.926;2023-06-10T05:01:52;13.60;96.80
16814;DHT22;8524;57.650;11.926;2023-06-10T05:04:21;13.70;95.40
16814;DHT22;8524;57.650;11.926;2023-06-10T05:06:48;13.90;94.80
16814;DHT22;8524;57.650;11.926;2023-06-10T05:09:15;13.90;94.20
16814;DHT22;8524;57.650;11.926;2023-06-10T05:11:42;13.80;94.60
16814;DHT22;8524;57.650;11.926;2023-06-10T05:14:10;13.90;94.00
16814;DHT22;8524;57.650;11.926;2023-06-10T05:16:37;13.80;93.90
16814;DHT22;8524;57.650;11.926;2023-06-10T05:19:04;13.90;94.30
16814;DHT22;8524;57.650;11.926;2023-06-10T05:21:33;14.00;93.50
16814;DHT22;8524;57.650;11.926;2023-06-10T05:24:00;14.10;93.20
16814;DHT22;8524;57.650;11.926;2023-06-10T05:26:27;14.20;93.00
16814;DHT22;8524;57.650;11.926;2023-06-10T05:28:54;14.20;92.10
16814;DHT22;8524;57.650;11.926;2023-06-10T05:31:22;14.40;91.90
16814;DHT22;8524;57.650;11.926;2023-06-10T05:33:49;14.50;91.70
16814;DHT22;8524;57.650;11.926;2023-06-10T05:36:16;14.70;91.60
16814;DHT22;8524;57.650;11.926;2023-06-10T05:38:44;14.90;90.60
16814;DHT22;8524;57.650;11.926;2023-06-10T05:41:11;15.10;90.30
16814;DHT22;8524;57.650;11.926;2023-06-10T05:43:38;15.20;90.10
16814;DHT22;8524;57.650;11.926;2023-06-10T05:46:05;15.30;90.10
16814;DHT22;8524;57.650;11.926;2023-06-10T05:48:32;15.50;88.30
16814;DHT22;8524;57.650;11.926;2023-06-10T05:50:59;15.70;86.90
16814;DHT22;8524;57.650;11.926;2023-06-10T05:53:26;16.00;87.60
16814;DHT22;8524;57.650;11.926;2023-06-10T05:55:56;16.20;86.90
16814;DHT22;8524;57.650;11.926;2023-06-10T05:58:24;16.30;85.20
16814;DHT22;8524;57.650;11.926;2023-06-10T06:00:51;16.30;84.60
16814;DHT22;8524;57.650;11.926;2023-06-10T06:03:18;16.50;83.80
16814;DHT22;8524;57.650;11.926;2023-06-10T06:05:45;16.40;82.60
16814;DHT22;8524;57.650;11.926;2023-06-10T06:08:12;16.40;83.30
16814;DHT22;8524;57.650;11.926;2023-06-10T06:10:43;16.50;84.30
16814;DHT22;8524;57.650;11.926;2023-06-10T06:13:11;16.70;83.80
16814;DHT22;8524;57.650;11.926;2023-06-10T06:15:38;17.10;83.50
16814;DHT22;8524;57.650;11.926;2023-06-10T06:18:05;17.20;80.10
16814;DHT22;8524;57.650;11.926;2023-06-10T06:20:32;17.20;79.90
16814;DHT22;8524;57.650;11.926;2023-06-10T06:22:59;17.30;80.00
16814;DHT22;8524;57.650;11.926;2023-06-10T06:25:26;17.50;78.70
16814;DHT22;8524;57.650;11.926;2023-06-10T06:27:53;17.50;77.60
16814;DHT22;8524;57.650;11.926;2023-06-10T06:30:21;17.60;76.60
16814;DHT22;8524;57.650;11.926;2023-06-10T06:32:49;18.00;75.60
16814;DHT22;8524;57.650;11.926;2023-06-10T06:35:17;18.50;75.30
16814;DHT22;8524;57.650;11.926;2023-06-10T06:37:44;18.90;72.50
16814;DHT22;8524;57.650;11.926;2023-06-10T06:40:12;19.50;69.60
16814;DHT22;8524;57.650;11.926;2023-06-10T06:42:39;19.20;64.40
16814;DHT22;8524;57.650;11.926;2023-06-10T06:45:07;19.30;64.80
16814;DHT22;8524;57.650;11.926;2023-06-10T06:47:35;19.40;65.40
16814;DHT22;8524;57.650;11.926;2023-06-10T06:50:02;19.80;62.60
16814;DHT22;8524;57.650;11.926;2023-06-10T06:52:29;19.90;59.60
16814;DHT22;8524;57.650;11.926;2023-06-10T06:54:56;20.00;59.00
16814;DHT22;8524;57.650;11.926;2023-06-10T06:57:23;20.10;57.30
16814;DHT22;8524;57.650;11.926;2023-06-10T06:59:50;20.20;56.50
16814;DHT22;8524;57.650;11.926;2023-06-10T07:02:17;20.20;57.60
16814;DHT22;8524;57.650;11.926;2023-06-10T07:04:46;20.70;54.10
16814;DHT22;8524;57.650;11.926;2023-06-10T07:07:15;20.40;52.50
16814;DHT22;8524;57.650;11.926;2023-06-10T07:09:42;20.40;51.70
16814;DHT22;8524;57.650;11.926;2023-06-10T07:12:10;20.00;52.90
16814;DHT22;8524;57.650;11.926;2023-06-10T07:14:37;20.10;52.90
16814;DHT22;8524;57.650;11.926;2023-06-10T07:17:04;20.10;52.80
16814;DHT22;8524;57.650;11.926;2023-06-10T07:19:31;20.00;52.20
16814;DHT22;8524;57.650;11.926;2023-06-10T07:21:59;20.20;50.70
16814;DHT22;8524;57.650;11.926;2023-06-10T07:24:26;20.00;49.80
16814;DHT22;8524;57.650;11.926;2023-06-10T07:26:53;20.10;51.00
16814;DHT22;8524;57.650;11.926;2023-06-10T07:29:20;20.40;48.60
16814;DHT22;8524;57.650;11.926;2023-06-10T07:31:47;20.90;50.50
16814;DHT22;8524;57.650;11.926;2023-06-10T07:34:14;20.70;47.60
16814;DHT22;8524;57.650;11.926;2023-06-10T07:36:41;20.70;44.50
16814;DHT22;8524;57.650;11.926;2023-06-10T07:39:09;21.10;44.30
16814;DHT22;8524;57.650;11.926;2023-06-10T07:41:36;21.00;42.00
16814;DHT22;8524;57.650;11.926;2023-06-10T07:44:03;21.30;42.50
16814;DHT22;8524;57.650;11.926;2023-06-10T07:46:30;21.70;40.10
16814;DHT22;8524;57.650;11.926;2023-06-10T07:48:57;21.60;35.50
16814;DHT22;8524;57.650;11.926;2023-06-10T07:51:24;21.90;33.90
16814;DHT22;8524;57.650;11.926;2023-06-10T07:53:51;21.60;32.90
16814;DHT22;8524;57.650;11.926;2023-06-10T07:56:20;21.40;32.20
16814;DHT22;8524;57.650;11.926;2023-06-10T07:58:47;21.60;29.00
16814;DHT22;8524;57.650;11.926;2023-06-10T08:01:14;21.80;28.40
16814;DHT22;8524;57.650;11.926;2023-06-10T08:03:42;21.80;27.50
16814;DHT22;8524;57.650;11.926;2023-06-10T08:06:09;22.20;26.50
16814;DHT22;8524;57.650;11.926;2023-06-10T08:08:37;22.50;27.50
16814;DHT22;8524;57.650;11.926;2023-06-10T08:11:07;22.20;24.90
16814;DHT22;8524;57.650;11.926;2023-06-10T08:13:36;22.30;20.30
16814;DHT22;8524;57.650;11.926;2023-06-10T08:16:03;22.10;21.90
16814;DHT22;8524;57.650;11.926;2023-06-10T08:18:31;22.20;21.20
16814;DHT22;8524;57.650;11.926;2023-06-10T08:20:58;22.40;19.20
16814;DHT22;8524;57.650;11.926;2023-06-10T08:23:25;22.50;17.60
16814;DHT22;8524;57.650;11.926;2023-06-10T08:25:52;22.50;13.30
16814;DHT22;8524;57.650;11.926;2023-06-10T08:28:19;22.60;7.30
16814;DHT22;8524;57.650;11.926;2023-06-10T08:30:47;22.60;12.50
16814;DHT22;8524;57.650;11.926;2023-06-10T08:33:14;23.10;9.70
16814;DHT22;8524;57.650;11.926;2023-06-10T08:35:41;23.30;7.40
16814;DHT22;8524;57.650;11.926;2023-06-10T08:38:08;23.10;1.00
16814;DHT22;8524;57.650;11.926;2023-06-10T08:40:35;23.00;1.00
16814;DHT22;8524;57.650;11.926;2023-06-10T08:43:06;23.10;1.00
16814;DHT22;8524;57.650;11.926;2023-06-10T08:45:35;23.20;1.00
16814;DHT22;8524;57.650;11.926;2023-06-10T08:48:05;23.00;1.00
16814;DHT22;8524;57.650;11.926;2023-06-10T08:50:34;22.80;1.00
16814;DHT22;8524;57.650;11.926;2023-06-10T08:53:04;22.80;1.00
16814;DHT22;8524;57.650;11.926;2023-06-10T08:55:33;22.80;1.00
16814;DHT22;8524;57.650;11.926;2023-06-10T08:58:02;23.00;1.00
16814;DHT22;8524;57.650;11.926;2023-06-10T09:00:30;23.20;1.00
16814;DHT22;8524;57.650;11.926;2023-06-10T09:02:58;23.20;1.00
16814;DHT22;8524;57.650;11.926;2023-06-10T09:05:27;23.00;1.00
16814;DHT22;8524;57.650;11.926;2023-06-10T09:07:57;23.10;1.00
16814;DHT22;8524;57.650;11.926;2023-06-10T09:10:25;23.10;1.00
16814;DHT22;8524;57.650;11.926;2023-06-10T09:12:52;23.30;1.00
16814;DHT22;8524;57.650;11.926;2023-06-10T09:15:19;23.50;1.00
16814;DHT22;8524;57.650;11.926;2023-06-10T09:17:47;23.80;1.00
16814;DHT22;8524;57.650;11.926;2023-06-10T09:20:14;24.00;1.00
16814;DHT22;8524;57.650;11.926;2023-06-10T09:22:42;23.80;1.00
16814;DHT22;8524;57.650;11.926;2023-06-10T09:25:12;24.00;1.00
16814;DHT22;8524;57.650;11.926;2023-06-10T09:27:46;23.70;1.00
16814;DHT22;8524;57.650;11.926;2023-06-10T09:30:25;23.80;1.00
16814;DHT22;8524;57.650;11.926;2023-06-10T09:32:53;23.60;1.00
16814;DHT22;8524;57.650;11.926;2023-06-10T09:35:22;23.80;1.00
16814;DHT22;8524;57.650;11.926;2023-06-10T09:37:52;24.10;1.00
16814;DHT22;8524;57.650;11.926;2023-06-10T09:40:19;23.90;1.00
16814;DHT22;8524;57.650;11.926;2023-06-10T09:42:53;23.50;1.00
16814;DHT22;8524;57.650;11.926;2023-06-10T09:45:22;23.60;1.00
16814;DHT22;8524;57.650;11.926;2023-06-10T09:47:52;23.60;1.00
16814;DHT22;8524;57.650;11.926;2023-06-10T09:50:19;23.90;1.00
16814;DHT22;8524;57.650;11.926;2023-06-10T09:52:47;23.80;1.00
16814;DHT22;8524;57.650;11.926;2023-06-10T09:55:16;24.20;1.00
16814;DHT22;8524;57.650;11.926;2023-06-10T09:57:44;24.50;1.00
16814;DHT22;8524;57.650;11.926;2023-06-10T10:00:14;24.30;1.00
16814;DHT22;8524;57.650;11.926;2023-06-10T10:02:45;24.80;1.00
16814;DHT22;8524;57.650;11.926;2023-06-10T10:05:14;24.60;1.00
16814;DHT22;8524;57.650;11.926;2023-06-10T10:07:42;24.70;1.00
16814;DHT22;8524;57.650;11.926;2023-06-10T10:10:10;24.90;1.00
16814;DHT22;8524;57.650;11.926;2023-06-10T10:12:40;24.70;1.00
16814;DHT22;8524;57.650;11.926;2023-06-10T10:15:08;24.90;1.00
16814;DHT22;8524;57.650;11.926;2023-06-10T10:17:40;24.80;1.00
16814;DHT22;8524;57.650;11.926;2023-06-10T10:20:08;24.60;1.00
16814;DHT22;8524;57.650;11.926;2023-06-10T10:22:39;24.30;1.00
16814;DHT22;8524;57.650;11.926;2023-06-10T10:25:10;24.70;1.00
16814;DHT22;8524;57.650;11.926;2023-06-10T10:27:44;24.50;1.00
16814;DHT22;8524;57.650;11.926;2023-06-10T10:30:12;25.10;1.00
16814;DHT22;8524;57.650;11.926;2023-06-10T10:32:45;25.30;1.00
16814;DHT22;8524;57.650;11.926;2023-06-10T10:35:17;25.30;1.00
16814;DHT22;8524;57.650;11.926;2023-06-10T10:37:44;25.60;1.00
16814;DHT22;8524;57.650;11.926;2023-06-10T10:40:12;25.90;1.00
16814;DHT22;8524;57.650;11.926;2023-06-10T10:42:42;26.40;1.00
16814;DHT22;8524;57.650;11.926;2023-06-10T10:45:10;26.60;1.00
16814;DHT22;8524;57.650;11.926;2023-06-10T10:47:38;27.00;1.00
16814;DHT22;8524;57.650;11.926;2023-06-10T10:50:14;27.00;1.00
16814;DHT22;8524;57.650;11.926;2023-06-10T10:52:53;26.40;1.00
16814;DHT22;8524;57.650;11.926;2023-06-10T10:55:21;26.00;1.00
16814;DHT22;8524;57.650;11.926;2023-06-10T10:57:56;26.00;1.00
16814;DHT22;8524;57.650;11.926;2023-06-10T11:00:30;25.70;1.00
16814;DHT22;8524;57.650;11.926;2023-06-10T11:03:05;25.70;1.00
16814;DHT22;8524;57.650;11.926;2023-06-10T11:05:38;25.90;1.00
16814;DHT22;8524;57.650;11.926;2023-06-10T11:08:05;25.60;1.00
16814;DHT22;8524;57.650;11.926;2023-06-10T11:10:34;25.70;1.00
16814;DHT22;8524;57.650;11.926;2023-06-10T11:13:08;25.60;1.00
16814;DHT22;8524;57.650;11.926;2023-06-10T11:15:39;25.20;1.00
16814;DHT22;8524;57.650;11.926;2023-06-10T11:18:14;25.50;1.00
16814;DHT22;8524;57.650;11.926;2023-06-10T11:23:32;26.10;1.00
16814;DHT22;8524;57.650;11.926;2023-06-10T11:26:17;26.10;1.00
16814;DHT22;8524;57.650;11.926;2023-06-10T11:29:19;25.70;1.00
16814;DHT22;8524;57.650;11.926;2023-06-10T11:31:50;25.70;1.00
16814;DHT22;8524;57.650;11.926;2023-06-10T11:34:23;25.80;1.00
16814;DHT22;8524;57.650;11.926;2023-06-10T11:36:53;26.10;1.00
16814;DHT22;8524;57.650;11.926;2023-06-10T11:39:21;25.60;1.00
16814;DHT22;8524;57.650;11.926;2023-06-10T11:41:51;26.00;1.00
16814;DHT22;8524;57.650;11.926;2023-06-10T11:44:20;25.70;1.00
16814;DHT22;8524;57.650;11.926;2023-06-10T11:46:48;25.80;1.00
16814;DHT22;8524;57.650;11.926;2023-06-10T11:49:16;26.00;1.00
16814;DHT22;8524;57.650;11.926;2023-06-10T11:51:43;26.80;1.00
16814;DHT22;8524;57.650;11.926;2023-06-10T11:54:17;27.20;1.00
16814;DHT22;8524;57.650;11.926;2023-06-10T11:56:45;27.10;1.00
16814;DHT22;8524;57.650;11.926;2023-06-10T11:59:12;27.20;1.00
16814;DHT22;8524;57.650;11.926;2023-06-10T12:01:44;26.90;1.00
16814;DHT22;8524;57.650;11.926;2023-06-10T12:04:12;27.20;1.00
16814;DHT22;8524;57.650;11.926;2023-06-10T12:06:42;27.30;1.00
16814;DHT22;8524;57.650;11.926;2023-06-10T12:09:17;26.50;1.00
16814;DHT22;8524;57.650;11.926;2023-06-10T12:11:45;26.20;1.00
16814;DHT22;8524;57.650;11.926;2023-06-10T12:14:14;26.40;1.00
16814;DHT22;8524;57.650;11.926;2023-06-10T12:16:49;26.60;1.00
16814;DHT22;8524;57.650;11.926;2023-06-10T12:19:16;26.70;1.00
16814;DHT22;8524;57.650;11.926;2023-06-10T12:21:44;26.50;1.00
16814;DHT22;8524;57.650;11.926;2023-06-10T12:24:11;26.60;1.00
16814;DHT22;8524;57.650;11.926;2023-06-10T12:26:40;26.80;1.00
16814;DHT22;8524;57.650;11.926;2023-06-10T12:29:18;26.80;1.00
16814;DHT22;8524;57.650;11.926;2023-06-10T12:32:00;27.70;1.00
16814;DHT22;8524;57.650;11.926;2023-06-10T12:34:33;27.50;1.00
16814;DHT22;8524;57.650;11.926;2023-06-10T12:37:01;27.50;1.00
16814;DHT22;8524;57.650;11.926;2023-06-10T12:39:30;27.10;1.00
16814;DHT22;8524;57.650;11.926;2023-06-10T12:41:57;26.90;1.00
16814;DHT22;8524;57.650;11.926;2023-06-10T12:44:34;27.10;1.00
16814;DHT22;8524;57.650;11.926;2023-06-10T12:47:09;27.20;1.00
16814;DHT22;8524;57.650;11.926;2023-06-10T12:49:39;27.70;1.00
16814;DHT22;8524;57.650;11.926;2023-06-10T12:52:06;27.80;1.00
16814;DHT22;8524;57.650;11.926;2023-06-10T12:54:34;27.90;1.00
16814;DHT22;8524;57.650;11.926;2023-06-10T12:57:02;27.50;1.00
16814;DHT22;8524;57.650;11.926;2023-06-10T12:59:31;27.70;1.00
16814;DHT22;8524;57.650;11.926;2023-06-10T13:01:58;27.70;1.00
16814;DHT22;8524;57.650;11.926;2023-06-10T13:04:27;27.60;1.00
16814;DHT22;8524;57.650;11.926;2023-06-10T13:06:54;27.60;1.00
16814;DHT22;8524;57.650;11.926;2023-06-10T13:09:21;27.60;1.00
16814;DHT22;8524;57.650;11.926;2023-06-10T13:11:48;27.70;1.00
16814;DHT22;8524;57.650;11.926;2023-06-10T13:14:16;28.10;1.00
16814;DHT22;8524;57.650;11.926;2023-06-10T13:16:43;27.50;1.00
16814;DHT22;8524;57.650;11.926;2023-06-10T13:19:10;27.40;1.00
16814;DHT22;8524;57.650;11.926;2023-06-10T13:21:38;27.60;1.00
16814;DHT22;8524;57.650;11.926;2023-06-10T13:24:06;27.50;1.00
16814;DHT22;8524;57.650;11.926;2023-06-10T13:26:33;27.70;1.00
16814;DHT22;8524;57.650;11.926;2023-06-10T13:29:00;27.80;1.00
16814;DHT22;8524;57.650;11.926;2023-06-10T13:31:27;27.70;1.00
16814;DHT22;8524;57.650;11.926;2023-06-10T13:33:54;28.00;1.00
16814;DHT22;8524;57.650;11.926;2023-06-10T13:36:21;27.80;1.00
16814;DHT22;8524;57.650;11.926;2023-06-10T13:38:49;28.10;1.00
16814;DHT22;8524;57.650;11.926;2023-06-10T13:41:16;28.00;1.00
16814;DHT22;8524;57.650;11.926;2023-06-10T13:43:43;27.80;1.00
16814;DHT22;8524;57.650;11.926;2023-06-10T13:46:10;27.30;1.00
16814;DHT22;8524;57.650;11.926;2023-06-10T13:48:37;27.30;1.00
16814;DHT22;8524;57.650;11.926;2023-06-10T13:51:04;27.40;1.00
16814;DHT22;8524;57.650;11.926;2023-06-10T13:53:32;27.50;1.00
16814;DHT22;8524;57.650;11.926;2023-06-10T13:56:01;27.40;1.00
16814;DHT22;8524;57.650;11.926;2023-06-10T13:58:28;28.20;1.00
16814;DHT22;8524;57.650;11.926;2023-06-10T14:00:55;28.30;1.00
16814;DHT22;8524;57.650;11.926;2023-06-10T14:03:22;28.00;1.00
16814;DHT22;8524;57.650;11.926;2023-06-10T14:05:49;27.30;1.00
16814;DHT22;8524;57.650;11.926;2023-06-10T14:08:16;27.30;1.00
16814;DHT22;8524;57.650;11.926;2023-06-10T14:10:44;27.20;1.00
16814;DHT22;8524;57.650;11.926;2023-06-10T14:13:12;27.60;1.00
16814;DHT22;8524;57.650;11.926;2023-06-10T14:15:39;27.60;1.00
16814;DHT22;8524;57.650;11.926;2023-06-10T14:18:06;28.00;1.00
16814;DHT22;8524;57.650;11.926;2023-06-10T14:20:33;27.90;1.00
16814;DHT22;8524;57.650;11.926;2023-06-10T14:23:00;28.00;1.00
16814;DHT22;8524;57.650;11.926;2023-06-10T14:25:27;27.40;1.00
16814;DHT22;8524;57.650;11.926;2023-06-10T14:27:54;27.40;1.00
16814;DHT22;8524;57.650;11.926;2023-06-10T14:30:22;27.60;1.00
16814;DHT22;8524;57.650;11.926;2023-06-10T14:32:49;27.50;1.00
16814;DHT22;8524;57.650;11.926;2023-06-10T14:35:16;28.10;1.00
16814;DHT22;8524;57.650;11.926;2023-06-10T14:37:43;28.50;1.00
16814;DHT22;8524;57.650;11.926;2023-06-10T14:40:13;28.30;1.00
16814;DHT22;8524;57.650;11.926;2023-06-10T14:42:40;28.40;1.00
16814;DHT22;8524;57.650;11.926;2023-06-10T14:45:08;28.50;1.00
16814;DHT22;8524;57.650;11.926;2023-06-10T14:47:37;28.40;1.00
16814;DHT22;8524;57.650;11.926;2023-06-10T14:50:04;28.10;1.00
16814;DHT22;8524;57.650;11.926;2023-06-10T14:52:31;27.80;1.00
16814;DHT22;8524;57.650;11.926;2023-06-10T14:54:58;27.80;1.00
16814;DHT22;8524;57.650;11.926;2023-06-10T14:57:25;28.10;1.00
16814;DHT22;8524;57.650;11.926;2023-06-10T14:59:52;28.20;1.00
16814;DHT22;8524;57.650;11.926;2023-06-10T15:02:21;27.70;1.00
16814;DHT22;8524;57.650;11.926;2023-06-10T15:04:49;27.40;1.00
16814;DHT22;8524;57.650;11.926;2023-06-10T15:07:16;27.80;1.00
16814;DHT22;8524;57.650;11.926;2023-06-10T15:09:43;27.90;1.00
16814;DHT22;8524;57.650;11.926;2023-06-10T15:12:10;28.00;1.00
16814;DHT22;8524;57.650;11.926;2023-06-10T15:14:37;28.30;1.00
16814;DHT22;8524;57.650;11.926;2023-06-10T15:17:04;27.50;1.00
16814;DHT22;8524;57.650;11.926;2023-06-10T15:19:31;27.00;1.00
16814;DHT22;8524;57.650;11.926;2023-06-10T15:22:00;27.30;1.00
16814;DHT22;8524;57.650;11.926;2023-06-10T15:24:27;27.30;1.00
16814;DHT22;8524;57.650;11.926;2023-06-10T15:26:54;26.90;1.00
16814;DHT22;8524;57.650;11.926;2023-06-10T15:29:21;26.60;1.00
16814;DHT22;8524;57.650;11.926;2023-06-10T15:31:48;26.70;1.00
16814;DHT22;8524;57.650;11.926;2023-06-10T15:34:15;27.00;1.00
16814;DHT22;8524;57.650;11.926;2023-06-10T15:36:42;26.80;1.00
16814;DHT22;8524;57.650;11.926;2023-06-10T15:39:11;27.00;1.00
16814;DHT22;8524;57.650;11.926;2023-06-10T15:41:38;26.70;1.00
16814;DHT22;8524;57.650;11.926;2023-06-10T15:44:05;26.70;1.00
16814;DHT22;8524;57.650;11.926;2023-06-10T15:46:32;26.70;1.00